SCOC weather

Las Araucarias Airport
Puerto Octay, Los Lagos Region, Chile

Public forecast

Using degrees Celsius for public forecast. Weather courtesy of forecast.io.

METAR (pilot weather report)

Report is more than 2 hours old.

Closest report is Cañal Bajo Carlos - Hott Siebert Airport, 29.3 nm (54.3 km) NW. Retrieved 2019/06/24 22:00 UTC (4 hours ago):

SCJO 242200Z 28003KT 9999 SCT050 05/02 Q1018

TAF (pilot weather forecast)

Forecast is more than 12 hours old.

Closest forecast is Cañal Bajo Carlos - Hott Siebert Airport, 29.3 nm (54.3 km) NW. Retrieved 2019/06/24 12:33 UTC (13 hours ago):

TAF SCJO 241053Z 2412/2424 23005KT 9999 BKN040 TN04/2412Z TX09/2419Z TEMPO 2412/2414 8000 -SHRA BECMG 2414/2416 23010KT SCT040 BECMG 2421/2423 34006KT